sensor_id;sensor_type;location;lat;lon;timestamp;temperature;humidity
69084;SHT31;56185;48.526;9.044;2022-10-17T00:00:50;14.03;85.08
69084;SHT31;56185;48.526;9.044;2022-10-17T00:03:16;14.20;84.09
69084;SHT31;56185;48.526;9.044;2022-10-17T00:05:43;14.14;82.89
69084;SHT31;56185;48.526;9.044;2022-10-17T00:08:09;14.18;82.30
69084;SHT31;56185;48.526;9.044;2022-10-17T00:10:35;14.18;82.46
69084;SHT31;56185;48.526;9.044;2022-10-17T00:13:00;14.35;81.42
69084;SHT31;56185;48.526;9.044;2022-10-17T00:15:25;14.17;82.44
69084;SHT31;56185;48.526;9.044;2022-10-17T00:17:50;14.03;82.58
69084;SHT31;56185;48.526;9.044;2022-10-17T00:20:16;13.97;83.05
69084;SHT31;56185;48.526;9.044;2022-10-17T00:22:42;14.01;81.78
69084;SHT31;56185;48.526;9.044;2022-10-17T00:25:07;14.08;81.66
69084;SHT31;56185;48.526;9.044;2022-10-17T00:27:34;13.97;81.47
69084;SHT31;56185;48.526;9.044;2022-10-17T00:29:59;14.01;80.94
69084;SHT31;56185;48.526;9.044;2022-10-17T00:32:25;13.84;81.55
69084;SHT31;56185;48.526;9.044;2022-10-17T00:34:50;13.90;81.38
69084;SHT31;56185;48.526;9.044;2022-10-17T00:37:15;13.87;80.92
69084;SHT31;56185;48.526;9.044;2022-10-17T00:39:40;13.77;82.36
69084;SHT31;56185;48.526;9.044;2022-10-17T00:42:06;13.49;82.39
69084;SHT31;56185;48.526;9.044;2022-10-17T00:46:58;13.55;83.55
69084;SHT31;56185;48.526;9.044;2022-10-17T00:49:27;13.65;83.65
69084;SHT31;56185;48.526;9.044;2022-10-17T00:51:56;13.62;82.76
69084;SHT31;56185;48.526;9.044;2022-10-17T00:54:26;13.70;82.32
69084;SHT31;56185;48.526;9.044;2022-10-17T00:56:53;13.63;81.64
69084;SHT31;56185;48.526;9.044;2022-10-17T00:59:20;13.63;81.29
69084;SHT31;56185;48.526;9.044;2022-10-17T01:01:59;13.63;81.73
69084;SHT31;56185;48.526;9.044;2022-10-17T01:04:26;13.60;81.56
69084;SHT31;56185;48.526;9.044;2022-10-17T01:06:51;13.50;80.55
69084;SHT31;56185;48.526;9.044;2022-10-17T01:09:16;13.42;81.43
69084;SHT31;56185;48.526;9.044;2022-10-17T01:11:55;13.32;80.67
69084;SHT31;56185;48.526;9.044;2022-10-17T01:20:34;13.28;81.81
69084;SHT31;56185;48.526;9.044;2022-10-17T01:30:55;13.20;80.71
69084;SHT31;56185;48.526;9.044;2022-10-17T01:33:43;13.15;80.94
69084;SHT31;56185;48.526;9.044;2022-10-17T01:39:16;12.87;81.09
69084;SHT31;56185;48.526;9.044;2022-10-17T01:44:31;12.78;82.71
69084;SHT31;56185;48.526;9.044;2022-10-17T01:47:07;12.81;83.32
69084;SHT31;56185;48.526;9.044;2022-10-17T01:49:34;12.71;84.82
69084;SHT31;56185;48.526;9.044;2022-10-17T01:52:09;12.67;85.07
69084;SHT31;56185;48.526;9.044;2022-10-17T01:54:41;12.78;84.57
69084;SHT31;56185;48.526;9.044;2022-10-17T01:57:12;12.94;83.76
69084;SHT31;56185;48.526;9.044;2022-10-17T01:59:43;12.85;84.99
69084;SHT31;56185;48.526;9.044;2022-10-17T02:02:11;12.87;84.64
69084;SHT31;56185;48.526;9.044;2022-10-17T02:04:39;12.84;84.65
69084;SHT31;56185;48.526;9.044;2022-10-17T02:07:08;12.87;84.29
69084;SHT31;56185;48.526;9.044;2022-10-17T02:09:34;12.80;84.37
69084;SHT31;56185;48.526;9.044;2022-10-17T02:20:27;12.92;83.18
69084;SHT31;56185;48.526;9.044;2022-10-17T02:23:09;13.01;82.73
69084;SHT31;56185;48.526;9.044;2022-10-17T02:25:42;12.94;82.81
69084;SHT31;56185;48.526;9.044;2022-10-17T02:33:11;12.58;84.29
69084;SHT31;56185;48.526;9.044;2022-10-17T02:35:42;12.44;83.77
69084;SHT31;56185;48.526;9.044;2022-10-17T02:38:09;12.46;84.84
69084;SHT31;56185;48.526;9.044;2022-10-17T02:40:36;12.44;84.18
69084;SHT31;56185;48.526;9.044;2022-10-17T02:43:03;12.43;84.48
69084;SHT31;56185;48.526;9.044;2022-10-17T02:45:29;12.39;83.82
69084;SHT31;56185;48.526;9.044;2022-10-17T02:48:03;12.39;84.54
69084;SHT31;56185;48.526;9.044;2022-10-17T02:50:43;12.48;84.11
69084;SHT31;56185;48.526;9.044;2022-10-17T02:53:17;12.53;84.10
69084;SHT31;56185;48.526;9.044;2022-10-17T02:55:52;12.43;84.77
69084;SHT31;56185;48.526;9.044;2022-10-17T02:58:29;12.34;84.47
69084;SHT31;56185;48.526;9.044;2022-10-17T03:00:55;12.37;85.07
69084;SHT31;56185;48.526;9.044;2022-10-17T03:05:48;12.51;84.00
69084;SHT31;56185;48.526;9.044;2022-10-17T03:08:13;12.51;84.37
69084;SHT31;56185;48.526;9.044;2022-10-17T03:10:39;12.57;83.45
69084;SHT31;56185;48.526;9.044;2022-10-17T03:13:04;12.65;83.64
69084;SHT31;56185;48.526;9.044;2022-10-17T03:15:29;12.50;84.08
69084;SHT31;56185;48.526;9.044;2022-10-17T03:17:54;12.48;85.02
69084;SHT31;56185;48.526;9.044;2022-10-17T03:20:20;12.65;83.25
69084;SHT31;56185;48.526;9.044;2022-10-17T03:22:45;12.76;82.74
69084;SHT31;56185;48.526;9.044;2022-10-17T03:25:10;12.69;82.37
69084;SHT31;56185;48.526;9.044;2022-10-17T03:27:35;12.51;83.35
69084;SHT31;56185;48.526;9.044;2022-10-17T03:30:01;12.48;82.96
69084;SHT31;56185;48.526;9.044;2022-10-17T03:32:26;12.39;83.12
69084;SHT31;56185;48.526;9.044;2022-10-17T03:34:51;12.32;83.73
69084;SHT31;56185;48.526;9.044;2022-10-17T03:37:16;12.36;82.71
69084;SHT31;56185;48.526;9.044;2022-10-17T03:39:42;12.22;83.66
69084;SHT31;56185;48.526;9.044;2022-10-17T03:42:07;12.18;83.91
69084;SHT31;56185;48.526;9.044;2022-10-17T03:44:32;12.25;83.56
69084;SHT31;56185;48.526;9.044;2022-10-17T03:46:57;12.22;83.36
69084;SHT31;56185;48.526;9.044;2022-10-17T03:49:23;12.19;83.57
69084;SHT31;56185;48.526;9.044;2022-10-17T03:51:48;12.16;84.33
69084;SHT31;56185;48.526;9.044;2022-10-17T03:54:13;12.16;84.49
69084;SHT31;56185;48.526;9.044;2022-10-17T03:56:38;12.12;84.25
69084;SHT31;56185;48.526;9.044;2022-10-17T03:59:05;12.13;83.91
69084;SHT31;56185;48.526;9.044;2022-10-17T04:01:30;12.19;84.24
69084;SHT31;56185;48.526;9.044;2022-10-17T04:03:56;12.15;84.04
69084;SHT31;56185;48.526;9.044;2022-10-17T04:06:21;12.05;84.37
69084;SHT31;56185;48.526;9.044;2022-10-17T04:08:47;11.98;85.08
69084;SHT31;56185;48.526;9.044;2022-10-17T04:11:15;11.89;85.23
69084;SHT31;56185;48.526;9.044;2022-10-17T04:13:41;11.98;85.12
69084;SHT31;56185;48.526;9.044;2022-10-17T04:16:12;11.93;85.83
69084;SHT31;56185;48.526;9.044;2022-10-17T04:18:38;11.99;85.71
69084;SHT31;56185;48.526;9.044;2022-10-17T04:21:05;12.16;84.29
69084;SHT31;56185;48.526;9.044;2022-10-17T04:23:30;12.13;84.05
69084;SHT31;56185;48.526;9.044;2022-10-17T04:25:57;12.13;83.54
69084;SHT31;56185;48.526;9.044;2022-10-17T04:28:23;12.03;83.98
69084;SHT31;56185;48.526;9.044;2022-10-17T04:31:18;12.08;82.86
69084;SHT31;56185;48.526;9.044;2022-10-17T04:33:46;12.06;82.81
69084;SHT31;56185;48.526;9.044;2022-10-17T04:36:14;12.00;83.05
69084;SHT31;56185;48.526;9.044;2022-10-17T04:38:40;11.93;83.40
69084;SHT31;56185;48.526;9.044;2022-10-17T04:41:08;11.85;84.04
69084;SHT31;56185;48.526;9.044;2022-10-17T04:43:35;11.82;84.04
69084;SHT31;56185;48.526;9.044;2022-10-17T04:46:02;11.99;83.50
69084;SHT31;56185;48.526;9.044;2022-10-17T04:48:28;11.99;83.22
69084;SHT31;56185;48.526;9.044;2022-10-17T04:51:03;12.08;82.22
69084;SHT31;56185;48.526;9.044;2022-10-17T04:53:33;11.93;82.26
69084;SHT31;56185;48.526;9.044;2022-10-17T04:55:59;11.89;82.47
69084;SHT31;56185;48.526;9.044;2022-10-17T04:58:24;11.85;81.28
69084;SHT31;56185;48.526;9.044;2022-10-17T05:00:49;11.72;82.33
69084;SHT31;56185;48.526;9.044;2022-10-17T05:03:15;11.81;81.69
69084;SHT31;56185;48.526;9.044;2022-10-17T05:05:41;11.72;81.24
69084;SHT31;56185;48.526;9.044;2022-10-17T05:08:10;11.78;81.35
69084;SHT31;56185;48.526;9.044;2022-10-17T05:10:37;11.77;81.88
69084;SHT31;56185;48.526;9.044;2022-10-17T05:13:02;11.50;83.45
69084;SHT31;56185;48.526;9.044;2022-10-17T05:15:27;11.41;84.79
69084;SHT31;56185;48.526;9.044;2022-10-17T05:17:54;11.65;83.91
69084;SHT31;56185;48.526;9.044;2022-10-17T05:20:20;11.74;81.93
69084;SHT31;56185;48.526;9.044;2022-10-17T05:22:45;11.55;82.40
69084;SHT31;56185;48.526;9.044;2022-10-17T05:25:10;11.58;83.00
69084;SHT31;56185;48.526;9.044;2022-10-17T05:27:35;11.54;81.77
69084;SHT31;56185;48.526;9.044;2022-10-17T05:30:01;11.65;82.28
69084;SHT31;56185;48.526;9.044;2022-10-17T05:32:27;11.59;83.32
69084;SHT31;56185;48.526;9.044;2022-10-17T05:34:52;11.57;83.40
69084;SHT31;56185;48.526;9.044;2022-10-17T05:37:17;11.52;81.75
69084;SHT31;56185;48.526;9.044;2022-10-17T05:39:43;11.48;83.01
69084;SHT31;56185;48.526;9.044;2022-10-17T05:42:08;11.57;82.76
69084;SHT31;56185;48.526;9.044;2022-10-17T05:44:34;11.51;82.56
69084;SHT31;56185;48.526;9.044;2022-10-17T05:46:59;11.47;83.51
69084;SHT31;56185;48.526;9.044;2022-10-17T05:49:25;11.42;83.79
69084;SHT31;56185;48.526;9.044;2022-10-17T05:51:50;11.42;83.96
69084;SHT31;56185;48.526;9.044;2022-10-17T05:54:15;11.54;83.48
69084;SHT31;56185;48.526;9.044;2022-10-17T05:56:40;11.54;83.63
69084;SHT31;56185;48.526;9.044;2022-10-17T05:59:06;11.69;82.92
69084;SHT31;56185;48.526;9.044;2022-10-17T06:01:31;11.71;82.51
69084;SHT31;56185;48.526;9.044;2022-10-17T06:03:56;11.65;82.30
69084;SHT31;56185;48.526;9.044;2022-10-17T06:06:21;11.57;82.32
69084;SHT31;56185;48.526;9.044;2022-10-17T06:08:47;11.57;83.07
69084;SHT31;56185;48.526;9.044;2022-10-17T06:11:12;11.57;83.51
69084;SHT31;56185;48.526;9.044;2022-10-17T06:13:38;11.61;83.59
69084;SHT31;56185;48.526;9.044;2022-10-17T06:16:04;11.65;83.70
69084;SHT31;56185;48.526;9.044;2022-10-17T06:18:29;11.65;83.25
69084;SHT31;56185;48.526;9.044;2022-10-17T06:21:04;11.88;82.05
69084;SHT31;56185;48.526;9.044;2022-10-17T06:23:30;11.68;81.78
69084;SHT31;56185;48.526;9.044;2022-10-17T06:25:59;11.62;82.32
69084;SHT31;56185;48.526;9.044;2022-10-17T06:28:25;11.48;82.64
69084;SHT31;56185;48.526;9.044;2022-10-17T06:30:50;11.67;82.01
69084;SHT31;56185;48.526;9.044;2022-10-17T06:33:15;11.59;81.62
69084;SHT31;56185;48.526;9.044;2022-10-17T06:35:41;11.50;82.20
69084;SHT31;56185;48.526;9.044;2022-10-17T06:38:06;11.38;82.52
69084;SHT31;56185;48.526;9.044;2022-10-17T06:40:31;11.38;82.83
69084;SHT31;56185;48.526;9.044;2022-10-17T06:42:56;11.40;82.94
69084;SHT31;56185;48.526;9.044;2022-10-17T06:45:22;11.48;82.81
69084;SHT31;56185;48.526;9.044;2022-10-17T06:47:47;11.58;82.77
69084;SHT31;56185;48.526;9.044;2022-10-17T06:50:12;11.72;81.83
69084;SHT31;56185;48.526;9.044;2022-10-17T06:52:37;11.61;82.21
69084;SHT31;56185;48.526;9.044;2022-10-17T06:55:03;11.72;81.79
69084;SHT31;56185;48.526;9.044;2022-10-17T06:57:28;11.62;82.19
69084;SHT31;56185;48.526;9.044;2022-10-17T06:59:54;11.62;82.28
69084;SHT31;56185;48.526;9.044;2022-10-17T07:02:19;11.79;82.25
69084;SHT31;56185;48.526;9.044;2022-10-17T07:04:45;11.71;82.90
69084;SHT31;56185;48.526;9.044;2022-10-17T07:07:10;11.75;82.21
69084;SHT31;56185;48.526;9.044;2022-10-17T07:09:35;11.85;81.64
69084;SHT31;56185;48.526;9.044;2022-10-17T07:12:01;11.86;82.01
69084;SHT31;56185;48.526;9.044;2022-10-17T07:14:26;12.02;81.52
69084;SHT31;56185;48.526;9.044;2022-10-17T07:16:51;12.12;81.40
69084;SHT31;56185;48.526;9.044;2022-10-17T07:19:17;12.26;81.76
69084;SHT31;56185;48.526;9.044;2022-10-17T07:21:42;12.36;81.30
69084;SHT31;56185;48.526;9.044;2022-10-17T07:24:07;12.43;81.05
69084;SHT31;56185;48.526;9.044;2022-10-17T07:26:32;12.43;81.83
69084;SHT31;56185;48.526;9.044;2022-10-17T07:28:58;12.41;82.30
69084;SHT31;56185;48.526;9.044;2022-10-17T07:31:23;12.60;81.66
69084;SHT31;56185;48.526;9.044;2022-10-17T07:33:49;12.73;82.13
69084;SHT31;56185;48.526;9.044;2022-10-17T07:36:15;12.84;82.34
69084;SHT31;56185;48.526;9.044;2022-10-17T07:38:40;12.83;81.93
69084;SHT31;56185;48.526;9.044;2022-10-17T07:41:07;12.95;81.72
69084;SHT31;56185;48.526;9.044;2022-10-17T07:43:33;13.01;81.62
69084;SHT31;56185;48.526;9.044;2022-10-17T07:46:00;13.16;81.80
69084;SHT31;56185;48.526;9.044;2022-10-17T07:48:26;13.14;81.27
69084;SHT31;56185;48.526;9.044;2022-10-17T07:50:51;13.23;81.43
69084;SHT31;56185;48.526;9.044;2022-10-17T07:53:17;13.32;81.44
69084;SHT31;56185;48.526;9.044;2022-10-17T07:55:43;13.46;81.67
69084;SHT31;56185;48.526;9.044;2022-10-17T07:58:08;13.62;81.23
69084;SHT31;56185;48.526;9.044;2022-10-17T08:00:35;13.63;81.19
69084;SHT31;56185;48.526;9.044;2022-10-17T08:03:00;13.63;81.51
69084;SHT31;56185;48.526;9.044;2022-10-17T08:05:26;13.77;81.13
69084;SHT31;56185;48.526;9.044;2022-10-17T08:11:05;14.18;81.28
69084;SHT31;56185;48.526;9.044;2022-10-17T08:13:52;14.31;80.78
69084;SHT31;56185;48.526;9.044;2022-10-17T08:16:18;14.38;80.10
69084;SHT31;56185;48.526;9.044;2022-10-17T08:18:44;14.54;80.37
69084;SHT31;56185;48.526;9.044;2022-10-17T08:24:29;14.83;79.67
69084;SHT31;56185;48.526;9.044;2022-10-17T08:29:45;15.04;78.91
69084;SHT31;56185;48.526;9.044;2022-10-17T08:32:11;15.06;78.66
69084;SHT31;56185;48.526;9.044;2022-10-17T08:34:53;15.07;79.55
69084;SHT31;56185;48.526;9.044;2022-10-17T08:37:22;15.11;79.39
69084;SHT31;56185;48.526;9.044;2022-10-17T08:39:49;15.26;78.99
69084;SHT31;56185;48.526;9.044;2022-10-17T08:48:10;15.61;78.19
69084;SHT31;56185;48.526;9.044;2022-10-17T08:50:42;15.69;78.87
69084;SHT31;56185;48.526;9.044;2022-10-17T08:55:56;15.96;77.92
69084;SHT31;56185;48.526;9.044;2022-10-17T08:58:30;16.22;77.54
69084;SHT31;56185;48.526;9.044;2022-10-17T09:01:54;16.30;77.95
69084;SHT31;56185;48.526;9.044;2022-10-17T09:05:13;16.43;76.87
69084;SHT31;56185;48.526;9.044;2022-10-17T09:09:57;16.65;77.29
69084;SHT31;56185;48.526;9.044;2022-10-17T09:12:42;16.81;76.20
69084;SHT31;56185;48.526;9.044;2022-10-17T09:18:35;17.25;74.68
69084;SHT31;56185;48.526;9.044;2022-10-17T09:23:55;17.50;72.72
69084;SHT31;56185;48.526;9.044;2022-10-17T09:26:21;17.62;73.51
69084;SHT31;56185;48.526;9.044;2022-10-17T09:28:58;17.77;73.16
69084;SHT31;56185;48.526;9.044;2022-10-17T09:31:28;17.94;71.91
69084;SHT31;56185;48.526;9.044;2022-10-17T09:33:56;18.04;72.01
69084;SHT31;56185;48.526;9.044;2022-10-17T09:36:33;18.31;71.47
69084;SHT31;56185;48.526;9.044;2022-10-17T09:39:02;18.48;70.41
69084;SHT31;56185;48.526;9.044;2022-10-17T09:41:36;18.58;70.70
69084;SHT31;56185;48.526;9.044;2022-10-17T09:44:14;18.86;70.03
69084;SHT31;56185;48.526;9.044;2022-10-17T09:46:45;18.89;69.29
69084;SHT31;56185;48.526;9.044;2022-10-17T09:49:16;18.89;69.55
69084;SHT31;56185;48.526;9.044;2022-10-17T09:51:42;19.04;69.93
69084;SHT31;56185;48.526;9.044;2022-10-17T09:54:19;19.07;70.18
69084;SHT31;56185;48.526;9.044;2022-10-17T09:56:58;19.26;70.06
69084;SHT31;56185;48.526;9.044;2022-10-17T09:59:39;19.41;70.18
69084;SHT31;56185;48.526;9.044;2022-10-17T10:07:28;19.83;68.86
69084;SHT31;56185;48.526;9.044;2022-10-17T10:09:53;19.96;69.18
69084;SHT31;56185;48.526;9.044;2022-10-17T10:12:21;20.06;69.33
69084;SHT31;56185;48.526;9.044;2022-10-17T10:14:48;20.19;68.34
69084;SHT31;56185;48.526;9.044;2022-10-17T10:17:38;20.34;67.71
69084;SHT31;56185;48.526;9.044;2022-10-17T10:23:13;20.50;67.00
69084;SHT31;56185;48.526;9.044;2022-10-17T10:25:51;20.48;66.93
69084;SHT31;56185;48.526;9.044;2022-10-17T10:28:16;20.56;67.59
69084;SHT31;56185;48.526;9.044;2022-10-17T10:30:46;20.57;67.15
69084;SHT31;56185;48.526;9.044;2022-10-17T10:33:12;20.71;67.51
69084;SHT31;56185;48.526;9.044;2022-10-17T10:35:37;20.71;67.19
69084;SHT31;56185;48.526;9.044;2022-10-17T10:38:09;20.83;67.91
69084;SHT31;56185;48.526;9.044;2022-10-17T10:40:49;20.90;67.72
69084;SHT31;56185;48.526;9.044;2022-10-17T10:43:39;21.01;68.28
69084;SHT31;56185;48.526;9.044;2022-10-17T10:46:19;21.01;67.86
69084;SHT31;56185;48.526;9.044;2022-10-17T10:48:56;21.09;67.45
69084;SHT31;56185;48.526;9.044;2022-10-17T10:51:42;21.16;67.73
69084;SHT31;56185;48.526;9.044;2022-10-17T10:56:42;21.26;67.48
69084;SHT31;56185;48.526;9.044;2022-10-17T11:04:32;21.22;66.25
69084;SHT31;56185;48.526;9.044;2022-10-17T11:07:12;21.29;67.19
69084;SHT31;56185;48.526;9.044;2022-10-17T11:09:48;21.41;65.95
69084;SHT31;56185;48.526;9.044;2022-10-17T11:12:23;21.32;65.80
69084;SHT31;56185;48.526;9.044;2022-10-17T11:15:02;21.49;66.10
69084;SHT31;56185;48.526;9.044;2022-10-17T11:17:37;21.60;65.30
69084;SHT31;56185;48.526;9.044;2022-10-17T11:20:27;21.63;64.35
69084;SHT31;56185;48.526;9.044;2022-10-17T11:23:09;21.80;63.76
69084;SHT31;56185;48.526;9.044;2022-10-17T11:25:37;21.89;62.33
69084;SHT31;56185;48.526;9.044;2022-10-17T11:28:12;21.96;61.38
69084;SHT31;56185;48.526;9.044;2022-10-17T11:33:38;22.24;62.08
69084;SHT31;56185;48.526;9.044;2022-10-17T11:36:07;22.37;62.36
69084;SHT31;56185;48.526;9.044;2022-10-17T11:38:46;22.52;61.48
69084;SHT31;56185;48.526;9.044;2022-10-17T11:41:18;22.61;60.89
69084;SHT31;56185;48.526;9.044;2022-10-17T11:44:35;22.77;61.53
69084;SHT31;56185;48.526;9.044;2022-10-17T11:47:05;22.86;59.94
69084;SHT31;56185;48.526;9.044;2022-10-17T11:49:36;23.00;60.10
69084;SHT31;56185;48.526;9.044;2022-10-17T11:52:20;23.04;58.69
69084;SHT31;56185;48.526;9.044;2022-10-17T11:54:50;23.07;57.14
69084;SHT31;56185;48.526;9.044;2022-10-17T11:57:43;23.23;56.74
69084;SHT31;56185;48.526;9.044;2022-10-17T12:03:04;23.46;56.40
69084;SHT31;56185;48.526;9.044;2022-10-17T12:08:12;23.60;55.61
69084;SHT31;56185;48.526;9.044;2022-10-17T12:10:53;23.75;54.33
69084;SHT31;56185;48.526;9.044;2022-10-17T12:18:42;24.01;52.42
69084;SHT31;56185;48.526;9.044;2022-10-17T12:21:08;24.02;51.47
69084;SHT31;56185;48.526;9.044;2022-10-17T12:23:33;24.19;51.41
69084;SHT31;56185;48.526;9.044;2022-10-17T12:26:00;24.23;50.52
69084;SHT31;56185;48.526;9.044;2022-10-17T12:28:28;24.26;49.27
69084;SHT31;56185;48.526;9.044;2022-10-17T12:31:00;24.32;47.27
69084;SHT31;56185;48.526;9.044;2022-10-17T12:33:33;24.32;45.90
69084;SHT31;56185;48.526;9.044;2022-10-17T12:49:38;24.55;44.60
69084;SHT31;56185;48.526;9.044;2022-10-17T12:52:25;24.55;44.23
69084;SHT31;56185;48.526;9.044;2022-10-17T13:00:03;24.59;43.47
69084;SHT31;56185;48.526;9.044;2022-10-17T13:02:29;24.71;43.80
69084;SHT31;56185;48.526;9.044;2022-10-17T13:05:06;24.59;43.61
69084;SHT31;56185;48.526;9.044;2022-10-17T13:07:32;24.74;45.00
69084;SHT31;56185;48.526;9.044;2022-10-17T13:09:58;24.84;44.37
69084;SHT31;56185;48.526;9.044;2022-10-17T13:12:25;24.87;43.75
69084;SHT31;56185;48.526;9.044;2022-10-17T13:14:51;24.84;43.56
69084;SHT31;56185;48.526;9.044;2022-10-17T13:17:24;24.87;43.79
69084;SHT31;56185;48.526;9.044;2022-10-17T13:19:49;24.90;42.93
69084;SHT31;56185;48.526;9.044;2022-10-17T13:22:21;24.92;43.18
69084;SHT31;56185;48.526;9.044;2022-10-17T13:24:47;24.83;43.26
69084;SHT31;56185;48.526;9.044;2022-10-17T13:27:31;24.97;43.11
69084;SHT31;56185;48.526;9.044;2022-10-17T13:29:59;24.84;42.33
69084;SHT31;56185;48.526;9.044;2022-10-17T13:32:33;24.95;42.75
69084;SHT31;56185;48.526;9.044;2022-10-17T13:37:29;25.07;42.59
69084;SHT31;56185;48.526;9.044;2022-10-17T13:39:55;25.14;43.79
69084;SHT31;56185;48.526;9.044;2022-10-17T13:42:26;25.18;43.83
69084;SHT31;56185;48.526;9.044;2022-10-17T13:44:52;25.08;42.63
69084;SHT31;56185;48.526;9.044;2022-10-17T13:47:26;25.24;44.04
69084;SHT31;56185;48.526;9.044;2022-10-17T13:49:52;25.27;43.15
69084;SHT31;56185;48.526;9.044;2022-10-17T13:52:20;25.27;43.70
69084;SHT31;56185;48.526;9.044;2022-10-17T13:54:48;25.22;43.13
69084;SHT31;56185;48.526;9.044;2022-10-17T13:57:32;25.22;42.96
69084;SHT31;56185;48.526;9.044;2022-10-17T14:00:00;25.32;43.29
69084;SHT31;56185;48.526;9.044;2022-10-17T14:02:28;25.31;43.25
69084;SHT31;56185;48.526;9.044;2022-10-17T14:05:14;25.21;43.82
69084;SHT31;56185;48.526;9.044;2022-10-17T14:07:55;25.27;44.13
69084;SHT31;56185;48.526;9.044;2022-10-17T14:10:33;25.17;42.30
69084;SHT31;56185;48.526;9.044;2022-10-17T14:12:59;25.22;42.87
69084;SHT31;56185;48.526;9.044;2022-10-17T14:15:27;25.14;43.96
69084;SHT31;56185;48.526;9.044;2022-10-17T14:18:00;25.18;44.14
69084;SHT31;56185;48.526;9.044;2022-10-17T14:20:26;25.24;44.68
69084;SHT31;56185;48.526;9.044;2022-10-17T14:22:52;25.35;43.62
69084;SHT31;56185;48.526;9.044;2022-10-17T14:28:07;25.34;42.67
69084;SHT31;56185;48.526;9.044;2022-10-17T14:33:11;25.28;43.32
69084;SHT31;56185;48.526;9.044;2022-10-17T14:35:37;25.27;44.27
69084;SHT31;56185;48.526;9.044;2022-10-17T14:38:04;25.36;44.26
69084;SHT31;56185;48.526;9.044;2022-10-17T14:40:31;25.24;43.84
69084;SHT31;56185;48.526;9.044;2022-10-17T14:43:01;25.29;43.14
69084;SHT31;56185;48.526;9.044;2022-10-17T14:50:30;25.17;44.18
69084;SHT31;56185;48.526;9.044;2022-10-17T14:53:16;25.10;44.12
69084;SHT31;56185;48.526;9.044;2022-10-17T14:55:54;25.11;44.74
69084;SHT31;56185;48.526;9.044;2022-10-17T14:58:35;25.04;43.85
69084;SHT31;56185;48.526;9.044;2022-10-17T15:01:01;24.94;44.92
69084;SHT31;56185;48.526;9.044;2022-10-17T15:03:26;24.95;45.01
69084;SHT31;56185;48.526;9.044;2022-10-17T15:05:57;24.98;44.40
69084;SHT31;56185;48.526;9.044;2022-10-17T15:08:33;24.97;45.91
69084;SHT31;56185;48.526;9.044;2022-10-17T15:11:07;24.97;46.17
69084;SHT31;56185;48.526;9.044;2022-10-17T15:13:33;25.03;45.52
69084;SHT31;56185;48.526;9.044;2022-10-17T15:16:04;24.99;45.35
69084;SHT31;56185;48.526;9.044;2022-10-17T15:18:30;24.90;45.87
69084;SHT31;56185;48.526;9.044;2022-10-17T15:21:14;24.84;48.16
69084;SHT31;56185;48.526;9.044;2022-10-17T15:23:39;24.66;48.51
69084;SHT31;56185;48.526;9.044;2022-10-17T15:26:12;24.55;48.30
69084;SHT31;56185;48.526;9.044;2022-10-17T15:28:37;24.44;50.26
69084;SHT31;56185;48.526;9.044;2022-10-17T15:31:02;24.39;50.76
69084;SHT31;56185;48.526;9.044;2022-10-17T15:34:01;24.33;51.71
69084;SHT31;56185;48.526;9.044;2022-10-17T15:36:35;24.28;52.75
69084;SHT31;56185;48.526;9.044;2022-10-17T15:39:02;24.18;53.11
69084;SHT31;56185;48.526;9.044;2022-10-17T15:41:29;23.94;53.77
69084;SHT31;56185;48.526;9.044;2022-10-17T15:43:55;23.94;52.62
69084;SHT31;56185;48.526;9.044;2022-10-17T15:46:23;23.78;54.23
69084;SHT31;56185;48.526;9.044;2022-10-17T15:48:49;23.68;55.07
69084;SHT31;56185;48.526;9.044;2022-10-17T15:51:15;23.51;55.59
69084;SHT31;56185;48.526;9.044;2022-10-17T15:53:41;23.37;56.61
69084;SHT31;56185;48.526;9.044;2022-10-17T15:56:07;23.19;57.66
69084;SHT31;56185;48.526;9.044;2022-10-17T15:58:39;23.09;57.68
69084;SHT31;56185;48.526;9.044;2022-10-17T16:01:05;22.92;58.32
69084;SHT31;56185;48.526;9.044;2022-10-17T16:03:31;22.82;59.12
69084;SHT31;56185;48.526;9.044;2022-10-17T16:05:56;22.49;59.26
69084;SHT31;56185;48.526;9.044;2022-10-17T16:08:22;22.32;58.80
69084;SHT31;56185;48.526;9.044;2022-10-17T16:10:47;22.15;59.02
69084;SHT31;56185;48.526;9.044;2022-10-17T16:13:17;22.13;58.84
69084;SHT31;56185;48.526;9.044;2022-10-17T16:15:43;22.00;58.88
69084;SHT31;56185;48.526;9.044;2022-10-17T16:18:09;21.92;59.34
69084;SHT31;56185;48.526;9.044;2022-10-17T16:20:34;21.79;58.95
69084;SHT31;56185;48.526;9.044;2022-10-17T16:22:59;21.62;59.88
69084;SHT31;56185;48.526;9.044;2022-10-17T16:25:26;21.55;60.09
69084;SHT31;56185;48.526;9.044;2022-10-17T16:27:59;21.43;60.38
69084;SHT31;56185;48.526;9.044;2022-10-17T16:30:27;21.43;60.34
69084;SHT31;56185;48.526;9.044;2022-10-17T16:32:53;21.29;61.20
69084;SHT31;56185;48.526;9.044;2022-10-17T16:35:21;21.06;62.48
69084;SHT31;56185;48.526;9.044;2022-10-17T16:38:16;21.16;62.77
69084;SHT31;56185;48.526;9.044;2022-10-17T16:40:41;20.87;63.97
69084;SHT31;56185;48.526;9.044;2022-10-17T16:43:10;20.61;64.88
69084;SHT31;56185;48.526;9.044;2022-10-17T16:45:36;20.60;64.77
69084;SHT31;56185;48.526;9.044;2022-10-17T16:48:01;20.54;64.93
69084;SHT31;56185;48.526;9.044;2022-10-17T16:50:26;20.50;64.33
69084;SHT31;56185;48.526;9.044;2022-10-17T16:52:52;20.44;64.87
69084;SHT31;56185;48.526;9.044;2022-10-17T16:55:17;20.36;65.36
69084;SHT31;56185;48.526;9.044;2022-10-17T16:57:42;20.20;66.00
69084;SHT31;56185;48.526;9.044;2022-10-17T17:00:08;20.22;65.94
69084;SHT31;56185;48.526;9.044;2022-10-17T17:02:35;20.05;66.56
69084;SHT31;56185;48.526;9.044;2022-10-17T17:05:00;19.90;67.17
69084;SHT31;56185;48.526;9.044;2022-10-17T17:07:26;19.90;67.26
69084;SHT31;56185;48.526;9.044;2022-10-17T17:09:51;19.78;67.75
69084;SHT31;56185;48.526;9.044;2022-10-17T17:12:17;19.75;68.11
69084;SHT31;56185;48.526;9.044;2022-10-17T17:14:42;19.67;68.41
69084;SHT31;56185;48.526;9.044;2022-10-17T17:17:07;19.48;68.93
69084;SHT31;56185;48.526;9.044;2022-10-17T17:19:32;19.44;68.66
69084;SHT31;56185;48.526;9.044;2022-10-17T17:21:58;19.50;68.88
69084;SHT31;56185;48.526;9.044;2022-10-17T17:24:23;19.41;68.65
69084;SHT31;56185;48.526;9.044;2022-10-17T17:27:04;19.32;68.79
69084;SHT31;56185;48.526;9.044;2022-10-17T17:29:29;19.07;69.73
69084;SHT31;56185;48.526;9.044;2022-10-17T17:31:55;19.21;69.17
69084;SHT31;56185;48.526;9.044;2022-10-17T17:34:20;19.17;69.77
69084;SHT31;56185;48.526;9.044;2022-10-17T17:36:45;19.07;70.31
69084;SHT31;56185;48.526;9.044;2022-10-17T17:39:12;19.04;70.20
69084;SHT31;56185;48.526;9.044;2022-10-17T17:41:41;18.87;69.92
69084;SHT31;56185;48.526;9.044;2022-10-17T17:44:09;18.79;68.80
69084;SHT31;56185;48.526;9.044;2022-10-17T17:46:35;18.83;68.99
69084;SHT31;56185;48.526;9.044;2022-10-17T17:49:00;18.59;69.90